Hlavní strana
METAR-TAF:

METAR-TAF

Letiště :

Kokkola, Finsko

zeměpisná šířka: 63-43N, zeměpisná délka: 023-09E, výška: 25 m

Aktuální stav počasí

Zpráva byla vytvořena před 26 minutami, v 07:20 UTC
Severozápadní vítr 9 kt, proměnlivý mezi západním a severním
Teplota -1°C
Vlhkost vzduchu 69%
Tlak 1002 hPa
Viditelnost 10 km a více
Žádná oblačnost pod 1500 m, nevyskytují se cumulonimby.

METAR: EFKK 250720Z 32009KT 270V350 CAVOK M01/M06 Q1002

Čas: 09:46 (07:46 UTC)

Předpověď počasí

Zpráva byla vytvořena před 11 hodinami a 12 minutami, v 20:34 UTC
Předpověď platná od 24 v 21 UTC do 24 v 24 UTC
Západojihozápadní vítr 6 kt
Viditelnost 10 km a více
Žádná oblačnost pod 1500 m, nevyskytují se cumulonimby.

TAF: EFKK 242034Z 2421/2424 25006KT CAVOK

Stav a předpovědi počasí z více než 4 000 letišť (zprávy METAR a TAF).

Červené a žluté tečky na mapě představují dostupné meteorologické stanice.

Když kurzor umístíte na tečku, zobrazí se název stanice.

Pak kliknutím zobrazíte stav a předpověď počasí.

Chcete-li změnit mapu, kliknutím na zelené tlačítko se znaménkem +mapu přiblížíte, kliknutím na zelené tlačítko se znaménkem – mapu oddálíte a kliknutím na zelené šipky přejdete na sousední mapy.


METAR-TAF: